Lake Sumner, New Mexico
Current Conditions -  °F | °C
As of 12:56 AM on Saturday 29 Nov 2014 (Local Time) from K4MR Reporting Station
Clear Clear  
Wind Chill: 50°   Ceiling: Unl
Heat Index: 50°   Visibility: 10mi
Dew Point: 18°   Wind: 14mph
Humidity: 28%   Direction: 260°W
Pressure: 29.96"   Gusts: NA
Location:  34.3001°N, 104.256°W
Report Text: K4MR 290756Z AUTO 26012KT 10SM CLR 10/M08 A2996 RMK AO2 SLP104 T01001078
Loading
Personal Weather Stations






























Interactive Weather Map New forecast layout! Learn more

10-Day Weather Forecast

Advertisements
Track Severe Weather on mobile